Time;durP1;ratioP1;P1;durP2;ratioP2;P2;SDS_P1;SDS_P2;PMS_P1;PMS_P2;Temp;Humidity;BMP_temperature;BMP_pressure;BME280_temperature;BME280_humidity;BME280_pressure;Samples;Min_cycle;Max_cycle;Signal;HPM_P1;HPM_P2
2023/08/17 00:01:51;;;;;;;3.17;1.42;;;;;;;21.88;68.59;100720.16;4082484;29;20517;-65
2023/08/17 00:03:53;;;;;;;4.10;1.88;;;;;;;21.85;68.94;100717.63;4083473;29;20059;-65
2023/08/17 00:05:56;;;;;;;3.28;1.75;;;;;;;21.88;69.63;100728.13;4081913;29;20123;-65
2023/08/17 00:08:00;;;;;;;2.60;1.40;;;;;;;21.91;69.87;100720.09;4080851;29;20039;-65
2023/08/17 00:10:05;;;;;;;2.78;1.80;;;;;;;21.92;70.41;100725.31;4080855;29;20055;-65
2023/08/17 00:12:08;;;;;;;3.95;1.60;;;;;;;22.02;69.64;100723.28;4099107;28;20087;-65
2023/08/17 00:14:12;;;;;;;3.75;1.75;;;;;;;22.03;69.57;100724.16;4086183;28;20051;-65
2023/08/17 00:16:15;;;;;;;5.57;1.90;;;;;;;22.02;69.77;100717.09;4082828;29;20047;-65
2023/08/17 00:18:18;;;;;;;3.28;1.60;;;;;;;22.06;69.70;100718.75;4081830;29;20039;-65
2023/08/17 00:20:21;;;;;;;4.75;1.92;;;;;;;22.14;68.64;100720.25;4084104;29;20043;-65
2023/08/17 00:22:24;;;;;;;3.58;1.73;;;;;;;22.10;68.74;100723.06;4082688;29;20128;-65
2023/08/17 00:24:27;;;;;;;2.40;1.73;;;;;;;22.09;68.93;100721.31;4082292;29;20043;-65
2023/08/17 00:26:31;;;;;;;3.30;1.50;;;;;;;22.09;69.38;100716.00;4083266;29;20043;-65
2023/08/17 00:28:34;;;;;;;3.55;1.70;;;;;;;22.09;69.47;100719.56;4083219;29;20421;-65
2023/08/17 00:30:37;;;;;;;1.90;1.20;;;;;;;22.14;69.49;100722.06;4082264;29;20517;-65
2023/08/17 00:32:40;;;;;;;2.50;1.70;;;;;;;22.19;68.86;100730.72;4081401;29;20122;-65
2023/08/17 00:34:43;;;;;;;10.32;2.58;;;;;;;22.28;67.76;100714.56;4083789;29;20062;-65
2023/08/17 00:36:46;;;;;;;4.38;1.58;;;;;;;22.19;68.30;100722.78;4082243;29;21962;-65
2023/08/17 00:38:49;;;;;;;3.80;2.13;;;;;;;22.06;69.06;100716.97;4081567;29;20061;-65
2023/08/17 00:40:52;;;;;;;4.25;2.00;;;;;;;22.05;69.11;100714.38;4081989;29;20040;-65
2023/08/17 00:42:56;;;;;;;5.43;2.20;;;;;;;22.10;68.73;100712.47;4081864;29;20039;-65
2023/08/17 00:44:59;;;;;;;4.25;2.08;;;;;;;22.05;68.84;100714.38;4079991;29;20476;-65
2023/08/17 00:47:02;;;;;;;3.92;2.10;;;;;;;22.07;68.40;100712.56;4064919;29;20060;-65
2023/08/17 00:49:05;;;;;;;4.38;2.00;;;;;;;22.01;69.41;100707.44;4085823;29;20047;-65
2023/08/17 00:51:09;;;;;;;3.60;1.70;;;;;;;22.02;69.40;100703.88;4095675;28;20074;-65
2023/08/17 00:53:13;;;;;;;2.80;1.73;;;;;;;22.04;69.13;100702.06;4081763;29;20094;-65
2023/08/17 00:55:16;;;;;;;5.22;2.00;;;;;;;22.03;68.94;100706.47;4081677;29;20047;-65
2023/08/17 00:57:19;;;;;;;4.65;2.08;;;;;;;22.04;68.73;100702.06;4080078;29;20074;-65
2023/08/17 00:59:24;;;;;;;4.93;2.00;;;;;;;21.91;69.45;100705.06;4096867;29;20532;-65
2023/08/17 01:01:27;;;;;;;5.82;1.85;;;;;;;21.90;70.07;100698.06;4081514;29;20445;-65
2023/08/17 01:03:30;;;;;;;6.28;2.33;;;;;;;21.99;69.46;100696.03;4081392;29;20594;-64
2023/08/17 01:05:33;;;;;;;3.78;2.17;;;;;;;21.93;69.45;100700.59;4080117;29;20423;-65
2023/08/17 01:07:37;;;;;;;3.85;2.10;;;;;;;21.94;69.16;100704.97;4080371;29;20070;-64
2023/08/17 01:09:40;;;;;;;3.43;1.87;;;;;;;21.91;69.36;100702.41;4081208;29;20043;-64
2023/08/17 01:11:52;;;;;;;2.78;1.50;;;;;;;21.82;69.83;100702.69;4064134;29;20303;-64
2023/08/17 01:14:01;;;;;;;7.53;2.20;;;;;;;21.82;70.01;100707.97;4080532;29;20067;-65
2023/08/17 01:16:08;;;;;;;2.58;1.63;;;;;;;21.79;70.31;100705.41;4097781;28;20700;-65
2023/08/17 01:18:21;;;;;;;3.50;1.92;;;;;;;21.79;70.47;100705.41;4080761;29;20051;-64
2023/08/17 01:20:24;;;;;;;3.03;1.70;;;;;;;21.77;71.20;100704.56;4079497;29;20048;-64
2023/08/17 01:22:32;;;;;;;5.05;1.83;;;;;;;21.83;71.42;100707.06;4081112;29;20035;-64
2023/08/17 01:24:36;;;;;;;2.65;1.75;;;;;;;21.88;71.44;100712.22;4079036;29;20135;-65
2023/08/17 01:26:39;;;;;;;3.15;1.65;;;;;;;21.92;71.38;100705.94;4079322;29;20039;-65
2023/08/17 01:28:42;;;;;;;5.60;1.92;;;;;;;21.95;71.32;100703.19;4081433;29;20513;-65
2023/08/17 01:30:51;;;;;;;4.35;1.75;;;;;;;22.00;70.63;100701.28;4094477;29;20051;-65
2023/08/17 01:32:59;;;;;;;5.45;1.83;;;;;;;21.94;70.62;100701.47;4094567;28;20035;-65
2023/08/17 01:35:12;;;;;;;6.03;2.40;;;;;;;21.96;70.35;100692.56;4095888;29;20043;-65
2023/08/17 01:37:20;;;;;;;5.95;1.88;;;;;;;21.92;70.01;100687.41;4080880;29;20162;-65
2023/08/17 01:39:28;;;;;;;3.60;2.00;;;;;;;21.86;70.61;100691.09;4079298;29;20131;-66
2023/08/17 01:41:34;;;;;;;4.18;1.98;;;;;;;21.80;70.96;100693.94;4092748;29;20099;-65
2023/08/17 01:43:37;;;;;;;2.67;1.58;;;;;;;21.81;71.33;100693.00;4077591;29;20054;-65
2023/08/17 01:45:40;;;;;;;7.20;2.20;;;;;;;21.84;71.70;100692.91;4079744;29;20086;-65
2023/08/17 01:47:43;;;;;;;2.75;1.63;;;;;;;21.91;71.43;100681.22;4079147;29;20417;-65
2023/08/17 01:49:46;;;;;;;5.78;1.80;;;;;;;21.97;70.98;100678.41;4080230;29;20095;-65
2023/08/17 01:51:50;;;;;;;3.77;2.10;;;;;;;21.96;70.98;100679.34;4079679;29;20078;-65
2023/08/17 01:53:52;;;;;;;5.53;2.13;;;;;;;21.93;71.10;100684.72;4078554;29;20402;-65
2023/08/17 01:55:55;;;;;;;3.42;2.35;;;;;;;21.94;71.15;100678.50;4079246;29;20077;-65
2023/08/17 01:58:00;;;;;;;2.87;1.50;;;;;;;21.95;71.42;100672.28;4076577;29;20036;-65
2023/08/17 02:00:04;;;;;;;3.15;1.60;;;;;;;21.96;71.00;100676.69;4087682;29;20118;-66
2023/08/17 02:02:17;;;;;;;4.22;2.00;;;;;;;21.93;71.23;100668.84;4080120;29;20055;-65
2023/08/17 02:04:20;;;;;;;4.00;1.98;;;;;;;21.88;71.34;100676.03;4081511;29;20126;-65
2023/08/17 02:06:22;;;;;;;3.20;1.95;;;;;;;21.85;71.35;100668.19;4078725;29;21031;-65
2023/08/17 02:08:25;;;;;;;7.53;2.10;;;;;;;21.83;71.49;100667.38;4077942;29;20414;-66
2023/08/17 02:10:29;;;;;;;4.20;2.20;;;;;;;21.83;71.84;100667.38;4081612;29;20066;-65
2023/08/17 02:12:32;;;;;;;2.22;1.90;;;;;;;21.84;71.56;100666.44;4093490;29;20385;-65
2023/08/17 02:14:36;;;;;;;5.32;2.00;;;;;;;21.87;71.33;100666.34;4095939;29;20066;-65
2023/08/17 02:16:38;;;;;;;3.78;2.05;;;;;;;21.84;71.63;100662.94;4094154;28;21557;-65
2023/08/17 02:18:41;;;;;;;4.07;2.35;;;;;;;21.83;71.58;100667.38;4094712;29;20129;-65
2023/08/17 02:20:44;;;;;;;4.45;1.73;;;;;;;21.77;71.75;100662.25;4063680;29;20042;-66
2023/08/17 02:22:47;;;;;;;4.82;2.40;;;;;;;21.73;71.44;100673.84;4090951;29;20131;-65
2023/08/17 02:24:50;;;;;;;3.38;2.10;;;;;;;21.64;71.89;100667.03;4095518;29;20102;-65
2023/08/17 02:26:52;;;;;;;4.63;2.05;;;;;;;21.63;72.44;100664.44;4064986;29;20044;-65
2023/08/17 02:28:54;;;;;;;5.13;2.72;;;;;;;21.68;72.07;100660.72;4095459;29;20241;-65
2023/08/17 02:31:01;;;;;;;6.15;2.97;;;;;;;21.68;71.80;100662.50;4079577;29;20686;-65
2023/08/17 02:33:04;;;;;;;5.28;2.47;;;;;;;21.60;72.29;100660.09;4093139;29;20054;-65
2023/08/17 02:35:08;;;;;;;4.60;2.50;;;;;;;21.63;72.38;100656.50;4095329;28;20066;-65
2023/08/17 02:37:11;;;;;;;5.68;2.95;;;;;;;21.61;72.39;100659.16;4079098;29;20785;-65
2023/08/17 02:39:14;;;;;;;6.25;2.90;;;;;;;21.60;72.16;100660.09;4095468;29;20051;-65
2023/08/17 02:41:17;;;;;;;4.78;2.75;;;;;;;21.56;72.36;100664.59;4080809;29;20074;-65
2023/08/17 02:43:19;;;;;;;5.03;2.97;;;;;;;21.54;72.44;100661.13;4092934;29;20031;-65
2023/08/17 02:45:22;;;;;;;5.07;2.88;;;;;;;21.54;72.36;100661.13;4065864;29;20058;-64
2023/08/17 02:47:25;;;;;;;5.10;3.20;;;;;;;21.45;72.34;100658.72;4094648;29;20139;-65
2023/08/17 02:49:29;;;;;;;4.63;3.00;;;;;;;21.35;72.77;100665.16;4080963;29;20040;-65
2023/08/17 02:51:32;;;;;;;4.95;3.08;;;;;;;21.32;72.84;100665.22;4080507;28;20076;-65
2023/08/17 02:53:35;;;;;;;7.30;3.30;;;;;;;21.33;73.07;100659.03;4095628;28;20035;-65
2023/08/17 02:55:36;;;;;;;3.70;2.38;;;;;;;21.37;73.50;100660.69;4081203;29;20058;-65
2023/08/17 02:57:39;;;;;;;7.80;3.15;;;;;;;21.41;73.24;100660.56;4094372;29;20035;-65
2023/08/17 02:59:42;;;;;;;7.55;2.97;;;;;;;21.44;73.16;100659.63;4081540;29;20047;-65
2023/08/17 03:01:46;;;;;;;7.43;3.08;;;;;;;21.49;73.06;100656.84;4062172;29;20040;-65
2023/08/17 03:03:50;;;;;;;4.93;2.75;;;;;;;21.52;72.60;100655.00;4080673;29;20115;-65
2023/08/17 03:05:53;;;;;;;4.30;2.45;;;;;;;21.52;72.92;100654.13;4079670;29;20913;-65
2023/08/17 03:07:56;;;;;;;6.57;2.95;;;;;;;21.55;72.58;100656.69;4079159;29;20036;-65
2023/08/17 03:09:59;;;;;;;4.70;2.85;;;;;;;21.56;72.48;100661.94;4080288;29;20036;-65
2023/08/17 03:12:02;;;;;;;4.80;2.40;;;;;;;21.55;72.42;100662.00;4076929;29;20058;-65
2023/08/17 03:14:04;;;;;;;6.10;3.30;;;;;;;21.55;72.56;100668.16;4079896;29;20126;-65
2023/08/17 03:16:07;;;;;;;6.22;3.13;;;;;;;21.54;72.43;100666.41;4063446;29;20098;-65
2023/08/17 03:18:10;;;;;;;6.93;3.90;;;;;;;21.58;71.47;100660.13;4077703;29;20063;-64
2023/08/17 03:20:15;;;;;;;4.53;3.00;;;;;;;21.48;72.22;100655.09;4079451;29;20040;-64
2023/08/17 03:22:18;;;;;;;5.88;3.60;;;;;;;;;;4076589;29;20881;-65
2023/08/17 03:24:21;;;;;;;8.40;3.58;;;;;;;21.40;72.42;100655.31;4079587;29;20074;-65
2023/08/17 03:26:24;;;;;;;5.25;2.95;;;;;;;21.38;73.02;100660.66;4078568;29;20078;-64
2023/08/17 03:28:28;;;;;;;6.25;3.05;;;;;;;21.44;72.96;100654.34;4079439;29;20055;-65
2023/08/17 03:30:31;;;;;;;6.15;3.30;;;;;;;21.45;72.76;100661.38;4077576;29;20054;-65
2023/08/17 03:32:34;;;;;;;6.95;4.38;;;;;;;21.50;72.19;100664.72;4093731;29;20129;-65
2023/08/17 03:34:37;;;;;;;7.57;4.65;;;;;;;21.50;72.15;100664.72;4079324;29;20095;-65
2023/08/17 03:36:41;;;;;;;11.02;6.47;;;;;;;21.51;71.54;100671.81;4093582;29;20035;-65
2023/08/17 03:38:44;;;;;;;7.60;4.22;;;;;;;21.39;72.42;100666.81;4078959;29;20044;-65
2023/08/17 03:40:47;;;;;;;19.25;7.00;;;;;;;21.35;72.45;100675.72;4063550;29;20040;-64
2023/08/17 03:42:50;;;;;;;11.63;6.93;;;;;;;21.46;71.54;100665.72;4078814;29;20485;-64
2023/08/17 03:44:53;;;;;;;8.85;5.50;;;;;;;21.27;71.73;100668.91;4092170;29;20125;-65
2023/08/17 03:46:56;;;;;;;10.75;5.72;;;;;;;21.05;73.05;100665.91;4093322;28;20429;-64
2023/08/17 03:48:59;;;;;;;9.45;5.45;;;;;;;21.04;72.94;100668.59;4078742;29;20047;-64
2023/08/17 03:51:02;;;;;;;8.60;6.28;;;;;;;21.05;72.69;100667.72;4079578;29;20071;-64
2023/08/17 03:53:05;;;;;;;9.82;4.80;;;;;;;21.00;73.28;100667.84;4079980;29;20071;-65
2023/08/17 03:55:09;;;;;;;7.57;4.10;;;;;;;21.03;73.86;100666.91;4078957;29;20051;-64
2023/08/17 03:57:12;;;;;;;15.27;5.00;;;;;;;21.11;73.06;100662.25;4078664;29;20517;-65
2023/08/17 03:59:15;;;;;;;8.93;5.47;;;;;;;21.10;73.29;100666.69;4079935;29;20047;-64
2023/08/17 04:01:19;;;;;;;10.70;6.30;;;;;;;21.15;72.91;100663.91;4094440;29;20138;-64
2023/08/17 04:03:22;;;;;;;9.98;6.22;;;;;;;21.11;72.93;100664.91;4077996;29;20059;-64
2023/08/17 04:05:25;;;;;;;12.27;8.10;;;;;;;21.05;73.20;100667.72;4095311;28;20138;-64
2023/08/17 04:07:28;;;;;;;10.30;7.07;;;;;;;21.01;73.00;100671.34;4082457;29;20610;-64
2023/08/17 04:09:33;;;;;;;10.73;7.37;;;;;;;20.92;73.29;100678.63;4083172;29;20117;-64
2023/08/17 04:11:37;;;;;;;13.50;8.93;;;;;;;20.97;73.27;100672.31;4082869;29;20315;-64
2023/08/17 04:13:40;;;;;;;18.67;14.30;;;;;;;20.98;72.90;100671.41;4082701;29;20131;-63
2023/08/17 04:15:43;;;;;;;19.83;13.82;;;;;;;20.68;73.84;100673.94;4066743;29;20111;-64
2023/08/17 04:17:47;;;;;;;35.25;22.23;;;;;;;20.52;74.44;100679.53;4076589;29;20090;-64
2023/08/17 04:19:50;;;;;;;40.35;24.77;;;;;;;20.38;75.23;100682.50;4082386;29;20067;-64
2023/08/17 04:21:53;;;;;;;43.38;26.05;;;;;;;20.32;75.55;100687.06;4082008;29;20083;-64
2023/08/17 04:23:56;;;;;;;44.85;25.35;;;;;;;20.18;76.29;100690.88;4083426;29;20036;-64
2023/08/17 04:26:00;;;;;;;41.65;25.27;;;;;;;20.18;76.72;100689.97;4097659;29;20078;-64
2023/08/17 04:28:05;;;;;;;44.00;25.92;;;;;;;20.16;76.93;100686.53;4080118;29;20047;-65
2023/08/17 04:30:11;;;;;;;46.88;26.15;;;;;;;20.21;76.83;100682.88;4078390;29;20044;-64
2023/08/17 04:32:24;;;;;;;40.35;28.00;;;;;;;20.25;76.73;100698.66;4081423;29;20091;-63
2023/08/17 04:34:26;;;;;;;41.15;26.42;;;;;;;20.30;76.64;100687.09;4081681;29;20043;-64
2023/08/17 04:36:29;;;;;;;45.03;29.80;;;;;;;20.36;76.72;100704.56;4080765;29;20550;-64
2023/08/17 04:38:32;;;;;;;44.10;28.48;;;;;;;20.30;76.67;100702.06;4080707;29;20039;-64
2023/08/17 04:40:35;;;;;;;40.95;26.90;;;;;;;20.40;76.39;100695.69;4079931;29;20035;-64
2023/08/17 04:42:40;;;;;;;45.08;27.92;;;;;;;20.39;76.48;100701.84;4097207;28;20039;-64
2023/08/17 04:44:43;;;;;;;38.72;26.95;;;;;;;20.28;76.69;100694.19;4081887;29;20036;-64
2023/08/17 04:46:45;;;;;;;42.03;26.70;;;;;;;20.23;76.95;100693.41;4097386;28;20043;-64
2023/08/17 04:48:49;;;;;;;39.53;26.23;;;;;;;20.18;77.08;100696.16;4097884;28;20082;-64
2023/08/17 04:50:52;;;;;;;35.25;26.33;;;;;;;20.27;76.69;100700.38;4082124;29;20092;-64
2023/08/17 04:52:55;;;;;;;42.40;26.58;;;;;;;20.28;76.93;100707.38;4098789;28;20094;-64
2023/08/17 04:54:58;;;;;;;47.50;29.40;;;;;;;20.32;76.78;100711.66;4097224;28;20494;-64
2023/08/17 04:57:01;;;;;;;40.55;24.48;;;;;;;20.25;77.21;100706.56;4079971;29;20040;-64
2023/08/17 04:59:06;;;;;;;50.88;30.92;;;;;;;20.39;77.00;100699.22;4081506;29;20055;-64
2023/08/17 05:01:10;;;;;;;53.88;30.10;;;;;;;20.42;76.48;100706.19;4081180;29;20139;-64
2023/08/17 05:03:13;;;;;;;49.28;28.77;;;;;;;20.36;76.84;100710.72;4081113;29;20132;-64
2023/08/17 05:05:37;;;;;;;58.25;31.35;;;;;;;20.29;76.97;100709.09;4081918;29;20035;-64
2023/08/17 05:07:43;;;;;;;51.80;30.55;;;;;;;20.33;77.25;100720.47;4080926;29;20082;-64
2023/08/17 05:09:46;;;;;;;58.03;34.30;;;;;;;20.35;77.26;100718.66;4081348;29;20102;-64
2023/08/17 05:11:49;;;;;;;64.20;35.08;;;;;;;20.44;76.64;100712.31;4080705;29;20449;-64
2023/08/17 05:13:52;;;;;;;63.15;34.97;;;;;;;20.32;77.09;100716.09;4097264;28;20046;-64
2023/08/17 05:15:56;;;;;;;62.17;34.63;;;;;;;20.27;77.34;100710.03;4081011;29;20106;-64
2023/08/17 05:17:58;;;;;;;;;;;;;;;20.13;78.03;100720.91;4079146;29;20074;-64
2023/08/17 05:20:03;;;;;;;60.92;33.85;;;;;;;20.15;77.88;100719.97;4097445;28;19927;-64
2023/08/17 05:22:06;;;;;;;;;;;;;;;20.11;78.11;100715.66;4082875;29;20054;-64
2023/08/17 05:24:09;;;;;;;38.00;24.42;;;;;;;20.23;77.51;100718.03;4080686;29;19937;-63
2023/08/17 05:26:12;;;;;;;36.33;22.88;;;;;;;20.19;77.71;100724.28;4080842;29;20138;-64
2023/08/17 05:28:18;;;;;;;35.78;21.42;;;;;;;20.27;77.31;100726.75;4079954;29;20103;-64
2023/08/17 05:30:21;;;;;;;38.33;20.73;;;;;;;20.18;77.72;100730.47;4082392;29;20069;-64
2023/08/17 05:32:26;;;;;;;30.63;18.52;;;;;;;20.20;77.89;100726.00;4077922;29;20498;-65
2023/08/17 05:34:30;;;;;;;31.60;19.98;;;;;;;20.20;77.91;100730.44;4080175;29;20474;-65
2023/08/17 05:36:33;;;;;;;37.92;23.35;;;;;;;20.31;77.65;100727.56;4078749;29;20111;-66
2023/08/17 05:38:36;;;;;;;42.45;24.15;;;;;;;20.41;77.51;100729.09;4079855;29;20553;-67
2023/08/17 05:40:39;;;;;;;39.60;23.38;;;;;;;20.44;76.87;100723.72;4093697;29;20085;-67
2023/08/17 05:42:42;;;;;;;36.67;21.83;;;;;;;20.39;77.35;100725.63;4093155;29;20126;-67
2023/08/17 05:44:46;;;;;;;;;;;;;;;20.49;76.76;100724.50;4080040;29;20036;-66
2023/08/17 05:46:49;;;;;;;35.95;23.00;;;;;;;20.44;76.85;100733.44;4078426;29;19930;-67
2023/08/17 05:48:53;;;;;;;30.38;18.85;;;;;;;20.44;76.96;100728.16;4097152;28;20040;-66
2023/08/17 05:50:55;;;;;;;33.50;20.48;;;;;;;20.44;77.69;100731.66;4081528;29;20069;-66
2023/08/17 05:52:58;;;;;;;29.33;18.10;;;;;;;20.56;77.28;100733.19;4080180;29;20040;-66
2023/08/17 05:55:00;;;;;;;35.40;20.73;;;;;;;20.64;76.80;100733.00;4080875;29;20044;-66
2023/08/17 05:57:04;;;;;;;32.35;18.90;;;;;;;20.70;76.17;100728.44;4064349;29;20040;-66
2023/08/17 05:59:07;;;;;;;27.23;18.05;;;;;;;20.63;76.51;100741.81;4096323;29;20094;-66
2023/08/17 06:01:12;;;;;;;25.83;18.58;;;;;;;20.61;76.46;100733.06;4081574;29;20517;-66
2023/08/17 06:03:14;;;;;;;25.98;16.73;;;;;;;20.56;76.52;100734.03;4081787;29;20050;-66
2023/08/17 06:05:19;;;;;;;27.77;18.17;;;;;;;20.62;76.39;100732.13;4081057;29;20066;-66
2023/08/17 06:07:22;;;;;;;29.83;18.60;;;;;;;20.59;76.49;100735.75;4080283;29;20039;-66
2023/08/17 06:09:25;;;;;;;27.13;17.77;;;;;;;20.58;76.73;100734.00;4080838;29;20067;-66
2023/08/17 06:11:28;;;;;;;22.08;17.25;;;;;;;20.61;76.59;100736.56;4081427;29;20156;-66
2023/08/17 06:13:30;;;;;;;19.95;13.45;;;;;;;20.64;76.55;100741.78;4064366;29;20040;-66
2023/08/17 06:15:33;;;;;;;24.25;16.17;;;;;;;20.75;76.02;100737.16;4081482;29;20541;-66
2023/08/17 06:17:36;;;;;;;19.83;15.05;;;;;;;20.84;75.63;100746.63;4081207;29;20126;-66
2023/08/17 06:19:40;;;;;;;20.50;16.30;;;;;;;20.83;75.50;100746.66;4081398;29;20058;-66
2023/08/17 06:21:44;;;;;;;20.35;14.77;;;;;;;20.96;74.68;100741.97;4080123;29;20525;-66
2023/08/17 06:23:47;;;;;;;13.90;11.48;;;;;;;20.79;75.29;100739.72;4080690;29;20036;-66
2023/08/17 06:25:50;;;;;;;26.77;17.77;;;;;;;20.86;75.02;100747.44;4081023;29;20031;-66
2023/08/17 06:27:51;;;;;;;27.48;16.75;;;;;;;20.84;75.31;100749.28;4100710;23;20065;-69
2023/08/17 06:29:57;;;;;;;25.13;15.68;;;;;;;20.83;75.32;100747.53;4091715;28;20490;-70
2023/08/17 06:32:00;;;;;;;24.30;15.10;;;;;;;20.87;75.29;100749.19;4093006;29;20047;-70
2023/08/17 06:34:05;;;;;;;23.73;15.70;;;;;;;20.85;75.52;100745.72;4095928;28;20445;-71
2023/08/17 06:36:13;;;;;;;32.90;21.20;;;;;;;21.00;74.37;100743.63;4079424;29;20048;-71
2023/08/17 06:38:17;;;;;;;22.40;16.55;;;;;;;20.90;74.69;100749.13;4084603;29;20040;-72
2023/08/17 06:40:19;;;;;;;;;;;;;;;20.80;75.37;100742.31;4085849;28;20035;-72
2023/08/17 06:42:25;;;;;;;22.85;13.32;;;;;;;20.89;75.48;100743.88;4082139;29;19965;-72
2023/08/17 06:44:29;;;;;;;28.02;16.80;;;;;;;21.07;74.79;100746.06;4079535;29;20095;-72
2023/08/17 06:46:31;;;;;;;25.23;15.40;;;;;;;21.08;74.87;100741.66;4079775;29;20071;-72
2023/08/17 06:48:34;;;;;;;26.13;16.63;;;;;;;21.26;73.05;100740.31;4080748;29;20046;-72
2023/08/17 06:50:37;;;;;;;27.67;17.73;;;;;;;21.39;72.58;100731.16;4080953;29;20040;-70
2023/08/17 06:52:40;;;;;;;25.92;17.13;;;;;;;21.19;72.89;100738.75;4078375;29;20046;-71
2023/08/17 06:54:45;;;;;;;25.58;16.85;;;;;;;21.21;73.11;100742.22;4093989;29;20071;-71
2023/08/17 06:56:48;;;;;;;25.23;16.10;;;;;;;21.02;73.70;100741.81;4095015;29;20046;-71
2023/08/17 06:58:51;;;;;;;19.27;14.02;;;;;;;21.06;73.81;100744.34;4080063;29;20071;-71
2023/08/17 07:00:54;;;;;;;19.48;14.30;;;;;;;21.08;73.93;100747.81;4080784;29;20050;-71
2023/08/17 07:02:57;;;;;;;22.52;14.10;;;;;;;21.21;73.72;100745.72;4078500;29;20040;-71
2023/08/17 07:05:03;;;;;;;15.07;11.68;;;;;;;21.31;72.97;100750.78;4079933;29;20450;-70
2023/08/17 07:07:06;;;;;;;17.87;14.27;;;;;;;21.40;72.44;100751.41;4080108;29;20044;-71
2023/08/17 07:09:12;;;;;;;27.70;14.68;;;;;;;21.47;71.67;100749.47;4080788;29;20394;-71
2023/08/17 07:11:16;;;;;;;20.10;14.63;;;;;;;21.36;72.05;100751.53;4080835;29;20106;-70
2023/08/17 07:13:18;;;;;;;20.98;13.95;;;;;;;21.27;72.57;100753.50;4082097;29;20067;-70
2023/08/17 07:15:21;;;;;;;19.30;12.02;;;;;;;21.19;72.98;100755.47;4081231;29;20051;-71
2023/08/17 07:17:24;;;;;;;17.13;11.15;;;;;;;21.25;72.67;100757.94;4080122;29;20174;-71
2023/08/17 07:19:28;;;;;;;15.48;11.88;;;;;;;21.17;73.45;100756.41;4079441;29;20044;-71
2023/08/17 07:21:51;;;;;;;18.63;14.30;;;;;;;21.18;73.92;100753.72;4081248;29;20039;-71
2023/08/17 07:23:55;;;;;;;31.35;19.58;;;;;;;21.36;73.08;100754.16;4063613;29;20198;-71
2023/08/17 07:25:58;;;;;;;;;;;;;;;21.25;73.20;100750.03;4094731;29;20040;-71
2023/08/17 07:28:02;;;;;;;22.77;19.27;;;;;;;21.24;73.34;100747.41;4094211;28;20026;-71
2023/08/17 07:30:06;;;;;;;21.13;16.92;;;;;;;21.26;73.28;100751.78;4079589;29;20585;-72
2023/08/17 07:32:09;;;;;;;20.67;17.42;;;;;;;21.44;72.67;100750.41;4079827;29;20043;-72
2023/08/17 07:34:11;;;;;;;19.50;16.05;;;;;;;21.43;72.49;100747.81;4080889;29;20066;-72
2023/08/17 07:36:14;;;;;;;17.55;13.35;;;;;;;21.37;73.00;100743.53;4080422;29;20036;-71
2023/08/17 07:38:17;;;;;;;16.95;13.75;;;;;;;21.35;72.60;100741.84;4079906;29;20048;-72
2023/08/17 07:40:20;;;;;;;20.17;15.38;;;;;;;21.33;72.93;100748.97;4080577;29;20131;-72
2023/08/17 07:42:23;;;;;;;17.77;15.50;;;;;;;21.38;72.85;100745.28;4083651;29;20036;-72
2023/08/17 07:44:31;;;;;;;20.90;14.27;;;;;;;21.33;73.09;100751.59;4084080;29;20166;-73
2023/08/17 07:46:34;;;;;;;18.67;13.63;;;;;;;21.48;72.23;100758.25;4082496;29;20035;-72
2023/08/17 07:48:37;;;;;;;20.58;15.15;;;;;;;21.50;72.42;100762.63;4083737;29;20076;-73
2023/08/17 07:50:40;;;;;;;19.75;15.30;;;;;;;21.67;71.46;100762.22;4083582;29;20047;-72
2023/08/17 07:52:43;;;;;;;21.13;14.00;;;;;;;21.67;71.48;100761.31;4082461;29;20489;-71
2023/08/17 07:54:46;;;;;;;17.25;13.68;;;;;;;21.63;71.92;100755.25;4083838;29;20036;-72
2023/08/17 07:56:49;;;;;;;20.08;12.82;;;;;;;21.68;71.96;100752.47;4082936;29;20442;-72
2023/08/17 07:58:54;;;;;;;17.38;12.40;;;;;;;21.66;72.44;100756.97;4082173;29;20139;-73
2023/08/17 08:00:58;;;;;;;21.10;14.48;;;;;;;21.76;71.78;100754.00;4082034;29;20062;-72
2023/08/17 08:03:02;;;;;;;21.60;16.30;;;;;;;21.87;71.37;100763.44;4082340;29;20046;-72
2023/08/17 08:05:06;;;;;;;20.00;15.75;;;;;;;22.08;70.35;100756.66;4083942;29;20462;-71
2023/08/17 08:07:09;;;;;;;21.98;16.13;;;;;;;22.10;70.00;100754.84;4082617;29;21450;-73
2023/08/17 08:09:12;;;;;;;24.25;15.45;;;;;;;22.17;69.65;100756.38;4082871;29;20047;-72
2023/08/17 08:11:15;;;;;;;21.45;14.52;;;;;;;21.86;71.57;100749.34;4083173;29;20062;-71
2023/08/17 08:13:18;;;;;;;21.80;15.13;;;;;;;21.88;71.96;100758.09;4083740;29;20190;-71
2023/08/17 08:15:21;;;;;;;21.55;15.32;;;;;;;21.92;71.28;100743.84;4083154;29;20048;-72
2023/08/17 08:17:25;;;;;;;21.02;14.82;;;;;;;21.99;70.95;100751.63;4080346;29;20044;-71
2023/08/17 08:19:28;;;;;;;22.20;17.30;;;;;;;22.03;71.09;100753.28;4083350;29;20419;-72
2023/08/17 08:21:31;;;;;;;17.52;14.18;;;;;;;22.12;71.04;100755.66;4097848;29;20428;-72
2023/08/17 08:23:34;;;;;;;21.75;18.23;;;;;;;22.25;70.46;100759.69;4083005;29;20505;-72
2023/08/17 08:25:37;;;;;;;20.40;16.70;;;;;;;22.21;70.57;100750.09;4066689;29;20040;-72
2023/08/17 08:27:40;;;;;;;25.88;17.60;;;;;;;22.30;69.92;100749.81;4079023;29;20574;-71
2023/08/17 08:29:43;;;;;;;18.98;16.30;;;;;;;22.18;70.26;100752.84;4083826;29;20094;-72
2023/08/17 08:31:46;;;;;;;17.08;14.73;;;;;;;22.10;70.49;100745.09;4080227;29;20541;-71
2023/08/17 08:33:51;;;;;;;17.77;14.07;;;;;;;22.22;70.29;100741.22;4081117;29;20058;-70
2023/08/17 08:35:54;;;;;;;20.63;15.27;;;;;;;22.29;69.85;100742.78;4082939;29;20046;-70
2023/08/17 08:37:59;;;;;;;16.23;14.32;;;;;;;22.17;70.80;100745.78;4082933;29;20047;-70
2023/08/17 08:40:03;;;;;;;18.10;15.48;;;;;;;22.35;70.33;100739.09;4080796;29;20039;-70
2023/08/17 08:42:04;;;;;;;17.83;13.68;;;;;;;22.33;70.32;100740.06;4091038;29;20130;-70
2023/08/17 08:44:08;;;;;;;19.40;14.02;;;;;;;22.38;70.60;100748.75;4081858;29;20071;-70
2023/08/17 08:46:12;;;;;;;21.42;16.38;;;;;;;22.50;69.62;100748.34;4082854;29;20138;-70
2023/08/17 08:48:16;;;;;;;;;;;;;;;22.55;70.05;100751.75;4081922;29;20082;-70
2023/08/17 08:50:22;;;;;;;24.02;21.52;;;;;;;22.49;69.69;100751.94;4081039;29;19923;-70
2023/08/17 08:52:33;;;;;;;22.00;16.67;;;;;;;22.54;69.11;100754.44;4080017;29;20050;-70
2023/08/17 08:54:39;;;;;;;18.60;16.58;;;;;;;22.58;68.78;100750.78;4082771;29;20516;-70
2023/08/17 08:56:45;;;;;;;23.15;17.95;;;;;;;22.73;67.98;100744.13;4080937;29;20134;-69
2023/08/17 08:58:50;;;;;;;18.30;15.48;;;;;;;22.76;67.66;100754.63;4083068;29;20044;-70
2023/08/17 09:00:58;;;;;;;18.98;16.08;;;;;;;22.61;68.39;100746.25;4093383;29;20073;-69
2023/08/17 09:03:03;;;;;;;18.73;15.10;;;;;;;22.69;68.63;100745.16;4083087;29;20457;-66
2023/08/17 09:05:08;;;;;;;17.98;16.15;;;;;;;22.94;67.22;100742.56;4083525;29;20062;-69
2023/08/17 09:07:14;;;;;;;20.00;17.00;;;;;;;22.93;66.86;100744.34;4083412;29;20106;-67
2023/08/17 09:09:19;;;;;;;18.83;14.15;;;;;;;22.76;68.32;100744.88;4085129;29;20048;-64
2023/08/17 09:11:22;;;;;;;19.88;16.00;;;;;;;22.96;67.35;100744.25;4083625;29;20061;-68
2023/08/17 09:13:25;;;;;;;18.83;16.23;;;;;;;23.02;67.49;100738.75;4085192;29;20071;-68
2023/08/17 09:15:28;;;;;;;15.60;13.98;;;;;;;23.12;67.92;100743.78;4085254;29;20298;-66
2023/08/17 09:17:34;;;;;;;17.83;16.02;;;;;;;23.33;66.56;100740.41;4084431;29;20048;-66
2023/08/17 09:19:37;;;;;;;20.77;18.70;;;;;;;23.50;65.09;100741.59;4083339;29;20047;-69
2023/08/17 09:21:44;;;;;;;13.85;12.43;;;;;;;23.24;66.77;100740.72;4084799;29;20035;-66
2023/08/17 09:23:55;;;;;;;17.88;15.60;;;;;;;23.44;65.91;100745.34;4084913;29;20126;-71
2023/08/17 09:26:09;;;;;;;18.88;16.45;;;;;;;23.54;65.32;100737.94;4079955;29;20064;-69
2023/08/17 09:28:14;;;;;;;23.92;18.90;;;;;;;23.57;65.17;100737.81;4084045;29;20074;-70
2023/08/17 09:30:17;;;;;;;22.98;19.65;;;;;;;23.45;65.57;100732.94;4085293;29;20054;-70
2023/08/17 09:32:21;;;;;;;19.08;14.65;;;;;;;23.47;65.59;100725.78;4084671;29;20039;-73